Terminal Aerodrome Forecast
Issued by NWS

Home | Current Version | Previous Version | Text Only | Print | Product List | Glossary On
Versions: 1 2 3 4 5 6 7 8 9 10 11 12 13
441
FTPA31 PHFO 162332
TAFHOG
TAF
PHOG 162332Z 1700/1724 04020G28KT P6SM FEW030 SCT050
     FM170600 05010KT P6SM SCT060
     FM172000 04018G26KT P6SM FEW030 SCT050
      AMD LTD TO VIS AND WIND 1709/1716=

USA.gov is the U.S. government's official web portal to all federal, state and local government web resources and services.